Terminal Aerodrome Forecast
Issued by NWS Cleveland, OH

Home | Current Version | Previous Version | Graphics & Text | Print | Product List | Glossary Off
Versions: 1 2 3 4 5 6 7 8 9 10 11 12 13 14 15 16 17 18 19 20 21 22 23 24 25 26 27 28 29

000
FTUS41 KCLE 281454 AAB
TAFCLE
TAF AMD
KCLE 281454Z 2815/2918 16010KT P6SM SCT035 BKN060
     FM281700 19010KT P6SM VCTS BKN035CB OVC050
      TEMPO 2823/2902 3SM -TSRA BR BKN035CB
     FM290200 25010KT P6SM SCT035 BKN150=

USA.gov is the U.S. government's official web portal to all federal, state and local government web resources and services.